Time;durP1;ratioP1;P1;durP2;ratioP2;P2;SDS_P1;SDS_P2;PMS_P1;PMS_P2;Temp;Humidity;BMP_temperature;BMP_pressure;BME280_temperature;BME280_humidity;BME280_pressure;Samples;Min_cycle;Max_cycle;Signal;HPM_P1;HPM_P2
2021/08/12 00:02:31;;;;;;;8.98;6.55;;;;;;;13.57;67.59;100812.89;2130807;83;31107;-61
2021/08/12 00:05:33;;;;;;;8.95;6.55;;;;;;;13.54;67.64;100817.09;2131437;83;34241;-61
2021/08/12 00:08:35;;;;;;;9.93;6.60;;;;;;;13.52;67.79;100818.98;2130415;83;30032;-61
2021/08/12 00:11:38;;;;;;;9.68;6.67;;;;;;;13.51;67.89;100814.55;2131409;83;27549;-60
2021/08/12 00:14:41;;;;;;;9.13;6.92;;;;;;;13.47;68.08;100820.59;2130924;83;28763;-60
2021/08/12 00:17:43;;;;;;;13.13;7.03;;;;;;;13.46;68.04;100823.37;2128828;83;31126;-60
2021/08/12 00:20:45;;;;;;;10.38;7.00;;;;;;;13.43;68.05;100828.42;2128707;83;34126;-60
2021/08/12 00:23:47;;;;;;;9.90;7.28;;;;;;;13.41;68.23;100828.12;2128396;83;30223;-60
2021/08/12 00:26:50;;;;;;;10.28;6.60;;;;;;;13.38;68.21;100827.79;2128922;83;27608;-61
2021/08/12 00:29:52;;;;;;;9.00;6.60;;;;;;;13.36;68.20;100827.00;2128398;83;28687;-60
2021/08/12 00:32:54;;;;;;;8.25;6.00;;;;;;;13.33;68.55;100826.66;2129353;82;32194;-60
2021/08/12 00:35:57;;;;;;;8.40;6.15;;;;;;;13.31;68.70;100829.05;2109286;83;34008;-61
2021/08/12 00:38:59;;;;;;;8.48;6.65;;;;;;;13.30;68.67;100834.03;2128687;83;30482;-61
2021/08/12 00:42:01;;;;;;;9.25;6.37;;;;;;;13.26;68.82;100835.14;2128780;83;27724;-61
2021/08/12 00:45:06;;;;;;;10.93;6.92;;;;;;;13.24;68.82;100836.58;2128335;83;28715;-61
2021/08/12 00:48:08;;;;;;;8.20;6.33;;;;;;;13.21;68.94;100837.62;2129056;83;31222;-60
2021/08/12 00:51:10;;;;;;;9.33;6.92;;;;;;;13.20;68.95;100841.71;2128275;83;35188;-61
2021/08/12 00:54:13;;;;;;;8.55;6.33;;;;;;;13.17;69.17;100839.17;2146110;82;31517;-60
2021/08/12 00:57:18;;;;;;;13.75;6.55;;;;;;;13.15;69.20;100841.10;2165744;82;27699;-61
2021/08/12 01:00:20;;;;;;;10.08;6.53;;;;;;;13.12;69.26;100847.49;2171745;81;28692;-61
2021/08/12 01:03:22;;;;;;;10.65;6.75;;;;;;;13.10;69.25;100845.35;2161619;82;31039;-61
2021/08/12 01:06:29;;;;;;;10.98;6.58;;;;;;;13.08;69.33;100845.91;2128497;83;34262;-61
2021/08/12 01:09:53;;;;;;;9.58;6.83;;;;;;;13.03;69.44;100844.80;2128999;83;29340;-60
2021/08/12 01:13:25;;;;;;;11.53;6.67;;;;;;;13.01;69.37;100843.15;2128987;83;27701;-61
2021/08/12 01:16:31;;;;;;;8.85;6.90;;;;;;;12.99;69.46;100846.39;2156635;82;28715;-62
2021/08/12 01:20:18;;;;;;;13.10;7.10;;;;;;;12.96;69.57;100855.95;2125850;82;31016;-60
2021/08/12 01:23:23;;;;;;;13.18;6.85;;;;;;;12.93;69.56;100851.61;2116804;84;34391;-61
2021/08/12 01:26:26;;;;;;;11.78;4.95;;;;;;;12.90;69.62;100854.45;2131588;82;30537;-61
2021/08/12 01:29:38;;;;;;;12.28;7.50;;;;;;;12.86;69.76;100857.77;2153708;82;27681;-61
2021/08/12 01:33:13;;;;;;;9.45;6.47;;;;;;;12.84;70.19;100861.02;2043635;86;29061;-61
2021/08/12 01:36:17;;;;;;;19.85;7.10;;;;;;;12.83;70.27;100853.00;2017654;86;31193;-61
2021/08/12 01:39:20;;;;;;;9.93;6.58;;;;;;;12.80;70.25;100858.06;2113331;83;33977;-61
2021/08/12 01:42:25;;;;;;;11.03;7.35;;;;;;;12.79;70.34;100854.13;2119281;84;30156;-61
2021/08/12 01:45:30;;;;;;;11.60;7.05;;;;;;;12.77;70.49;100858.22;2073606;85;27710;-61
2021/08/12 01:48:33;;;;;;;8.95;6.95;;;;;;;12.75;70.37;100858.30;2038666;85;29891;-61
2021/08/12 01:51:36;;;;;;;9.03;7.10;;;;;;;12.74;70.46;100859.74;2039557;87;32276;-61
2021/08/12 01:54:39;;;;;;;10.23;6.80;;;;;;;12.72;70.47;100864.32;2024308;87;34146;-61
2021/08/12 01:57:42;;;;;;;12.73;7.10;;;;;;;12.68;70.49;100866.27;2041399;85;30542;-61
2021/08/12 02:00:47;;;;;;;8.50;6.40;;;;;;;12.67;70.54;100865.86;2024565;87;27695;-61
2021/08/12 02:03:50;;;;;;;10.70;8.00;;;;;;;12.65;70.64;100870.47;2050495;86;29330;-61
2021/08/12 02:06:52;;;;;;;9.30;6.30;;;;;;;12.63;70.65;100871.02;2035463;87;31918;-61
2021/08/12 02:09:56;;;;;;;11.45;6.90;;;;;;;12.59;70.64;100871.62;2072390;85;33336;-62
2021/08/12 02:12:58;;;;;;;12.15;7.22;;;;;;;12.57;70.63;100869.51;2075480;85;29331;-62
2021/08/12 02:16:01;;;;;;;9.30;6.62;;;;;;;12.55;70.84;100866.02;2129363;82;27615;-61
2021/08/12 02:19:05;;;;;;;9.88;7.30;;;;;;;12.52;70.73;100863.93;2131727;83;29549;-61
2021/08/12 02:22:18;;;;;;;11.35;6.92;;;;;;;12.50;70.81;100861.79;2131271;83;32138;-61
2021/08/12 02:25:51;;;;;;;13.25;6.95;;;;;;;12.48;70.85;100865.91;2131839;83;33739;-61
2021/08/12 02:28:54;;;;;;;9.20;7.55;;;;;;;12.46;70.91;100868.69;2131781;83;29705;-62
2021/08/12 02:31:56;;;;;;;9.88;6.80;;;;;;;12.43;70.91;100865.25;2129001;83;27702;-61
2021/08/12 02:34:59;;;;;;;11.68;7.90;;;;;;;12.40;70.89;100866.28;2131794;83;29061;-62
2021/08/12 02:38:01;;;;;;;9.38;7.10;;;;;;;12.37;70.94;100858.84;2103473;83;32332;-62
2021/08/12 02:41:05;;;;;;;8.68;7.33;;;;;;;12.35;71.00;100860.73;2126630;83;33972;-61
2021/08/12 02:44:11;;;;;;;10.18;7.80;;;;;;;12.31;71.00;100868.08;2126068;83;29344;-62
2021/08/12 02:47:14;;;;;;;14.87;7.65;;;;;;;12.29;71.14;100866.79;2125972;83;27734;-62
2021/08/12 02:50:16;;;;;;;13.05;7.70;;;;;;;12.27;71.17;100866.47;2126133;83;28102;-61
2021/08/12 02:53:20;;;;;;;8.78;7.33;;;;;;;12.24;71.25;100868.84;2123660;83;31946;-62
2021/08/12 02:56:24;;;;;;;11.50;7.15;;;;;;;12.22;71.33;100864.47;2121487;83;33032;-62
2021/08/12 02:59:25;;;;;;;10.93;7.37;;;;;;;12.20;71.44;100868.59;2123927;83;30523;-62
2021/08/12 03:02:29;;;;;;;12.20;7.40;;;;;;;12.18;71.43;100877.19;2117005;83;27754;-62
2021/08/12 03:05:32;;;;;;;15.53;8.15;;;;;;;12.16;71.42;100871.01;2116894;83;28662;-61
2021/08/12 03:08:36;;;;;;;9.43;7.15;;;;;;;12.14;71.50;100874.23;2051798;86;31034;-61
2021/08/12 03:11:39;;;;;;;13.60;8.18;;;;;;;12.11;71.52;100868.55;2049062;86;33823;-61
2021/08/12 03:14:43;;;;;;;14.33;8.03;;;;;;;12.09;71.53;100879.83;2058068;85;29364;-62
2021/08/12 03:17:46;;;;;;;12.23;7.77;;;;;;;12.07;71.53;100879.52;2141423;83;27749;-61
2021/08/12 03:20:48;;;;;;;15.23;8.63;;;;;;;12.03;71.88;100874.73;2152452;82;29706;-61
2021/08/12 03:23:51;;;;;;;15.10;8.55;;;;;;;12.02;71.91;100881.53;2153035;82;32273;-61
2021/08/12 03:26:55;;;;;;;13.20;8.80;;;;;;;12.00;71.86;100870.38;2151841;82;33034;-61
2021/08/12 03:29:57;;;;;;;16.23;9.15;;;;;;;12.00;71.90;100876.21;2152656;82;29387;-61
2021/08/12 03:32:59;;;;;;;13.78;8.68;;;;;;;12.00;72.05;100871.73;2153385;82;27740;-62
2021/08/12 03:36:02;;;;;;;15.88;8.65;;;;;;;11.98;72.08;100866.90;2146730;82;29524;-61
2021/08/12 03:39:04;;;;;;;15.65;8.90;;;;;;;12.00;72.06;100873.52;2134751;83;31861;-61
2021/08/12 03:42:08;;;;;;;11.55;8.10;;;;;;;11.99;72.10;100869.98;2134634;83;33016;-62
2021/08/12 03:45:11;;;;;;;12.58;9.28;;;;;;;11.99;72.16;100878.04;2135775;82;29345;-62
2021/08/12 03:48:13;;;;;;;13.68;9.15;;;;;;;12.04;72.24;100872.45;2153604;82;28156;-62
2021/08/12 03:51:15;;;;;;;19.92;10.53;;;;;;;12.06;72.28;100877.77;2153052;82;29282;-62
2021/08/12 03:54:17;;;;;;;17.77;11.00;;;;;;;12.09;72.31;100881.17;2142312;82;32221;-62
2021/08/12 03:57:19;;;;;;;17.07;10.65;;;;;;;12.13;72.40;100884.13;2131293;83;34182;-61
2021/08/12 04:00:21;;;;;;;20.92;10.40;;;;;;;12.15;72.40;100881.35;2131655;83;29506;-62
2021/08/12 04:03:23;;;;;;;14.80;10.23;;;;;;;12.19;72.41;100878.92;2145412;82;27762;-61
2021/08/12 04:06:26;;;;;;;12.80;10.30;;;;;;;12.23;72.37;100883.22;2152846;82;29543;-61
2021/08/12 04:09:27;;;;;;;15.32;10.15;;;;;;;12.29;72.41;100887.42;2130470;82;32215;-62
2021/08/12 04:12:29;;;;;;;11.48;9.70;;;;;;;12.35;72.50;100883.08;2143872;82;34153;-62
2021/08/12 04:15:32;;;;;;;11.38;9.23;;;;;;;12.42;72.55;100887.23;2152454;82;29597;-61
2021/08/12 04:18:34;;;;;;;17.55;9.55;;;;;;;12.50;72.61;100888.20;2135190;82;27761;-61
2021/08/12 04:21:35;;;;;;;16.52;10.23;;;;;;;12.58;72.61;100892.72;2125082;83;29855;-62
2021/08/12 04:24:37;;;;;;;15.08;9.60;;;;;;;12.63;72.62;100881.77;2124900;82;31373;-61
2021/08/12 04:27:39;;;;;;;16.60;9.70;;;;;;;12.76;72.62;100888.73;2124869;83;34215;-62
2021/08/12 04:30:41;;;;;;;14.30;9.18;;;;;;;12.86;72.60;100889.16;2125087;83;30548;-61
2021/08/12 04:33:47;;;;;;;12.20;9.10;;;;;;;12.95;72.60;100882.45;2125760;82;28173;-62
2021/08/12 04:36:51;;;;;;;12.37;9.00;;;;;;;13.04;72.67;100881.52;2125065;83;28771;-61
2021/08/12 04:39:54;;;;;;;13.38;8.75;;;;;;;13.15;72.68;100886.34;2125541;82;31553;-61
2021/08/12 04:42:56;;;;;;;18.23;9.50;;;;;;;13.26;72.75;100891.19;2125045;83;34214;-61
2021/08/12 04:45:58;;;;;;;18.17;9.58;;;;;;;13.41;72.81;100894.06;2125483;83;29450;-61
2021/08/12 04:49:02;;;;;;;11.85;10.05;;;;;;;13.54;72.78;100891.61;2125670;83;27701;-62
2021/08/12 04:52:05;;;;;;;16.20;10.85;;;;;;;13.67;72.82;100894.04;2125099;83;29433;-62
2021/08/12 04:55:10;;;;;;;16.32;10.85;;;;;;;13.82;72.81;100893.67;2125037;83;31920;-62
2021/08/12 04:58:11;;;;;;;15.78;11.75;;;;;;;14.00;72.82;100894.52;2156316;82;33840;-61
2021/08/12 05:01:15;;;;;;;19.73;11.40;;;;;;;14.40;73.39;100890.09;2161780;82;30509;-62
2021/08/12 05:04:17;;;;;;;16.37;11.08;;;;;;;15.09;73.42;100889.78;2151677;82;27628;-62
2021/08/12 05:07:22;;;;;;;15.50;10.23;;;;;;;15.91;72.99;100881.67;2125262;83;29081;-62
2021/08/12 05:10:24;;;;;;;17.27;11.22;;;;;;;16.74;72.03;100879.13;2125472;83;32240;-65
2021/08/12 05:13:26;;;;;;;16.82;10.25;;;;;;;17.40;71.20;100882.80;2125007;83;34201;-64
2021/08/12 05:16:29;;;;;;;19.15;10.78;;;;;;;17.93;70.26;100881.84;2125033;82;30695;-64
2021/08/12 05:19:32;;;;;;;15.53;10.48;;;;;;;18.35;69.26;100887.02;2125328;83;27755;-63
2021/08/12 05:22:34;;;;;;;13.38;10.32;;;;;;;18.71;68.41;100893.42;2125112;83;28634;-63
2021/08/12 05:25:37;;;;;;;15.72;10.35;;;;;;;19.00;67.70;100897.17;2141959;82;31419;-65
2021/08/12 05:28:40;;;;;;;18.52;10.80;;;;;;;19.24;66.71;100900.38;2161755;82;33118;-65
2021/08/12 05:31:42;;;;;;;16.45;10.82;;;;;;;19.49;66.51;100905.25;2161996;82;30000;-63
2021/08/12 05:34:44;;;;;;;13.38;9.95;;;;;;;19.71;65.55;100908.52;2161595;82;27976;-63
2021/08/12 05:37:46;;;;;;;14.95;10.93;;;;;;;19.95;65.17;100907.60;2161809;82;29545;-62
2021/08/12 05:40:47;;;;;;;18.05;10.28;;;;;;;20.14;64.36;100913.78;2134221;82;32356;-62
2021/08/12 05:43:53;;;;;;;14.80;10.28;;;;;;;20.28;63.78;100916.25;2125015;83;34213;-62
2021/08/12 05:46:55;;;;;;;16.15;9.13;;;;;;;20.43;63.25;100919.59;2125014;83;30560;-64
2021/08/12 05:49:57;;;;;;;20.37;9.23;;;;;;;20.61;62.48;100916.35;2125238;83;27689;-64
2021/08/12 05:52:59;;;;;;;16.50;9.48;;;;;;;20.73;62.27;100913.12;2125309;83;29478;-65
2021/08/12 05:56:03;;;;;;;14.33;9.75;;;;;;;20.90;61.76;100920.78;2125314;82;32271;-64
2021/08/12 05:59:05;;;;;;;;;;;;;;;21.06;61.44;100917.61;2127894;83;34190;-65
2021/08/12 06:02:08;;;;;;;20.20;8.83;;;;;;;21.24;60.66;100923.86;2125310;83;30891;-63
2021/08/12 06:05:10;;;;;;;12.88;8.70;;;;;;;21.40;60.17;100916.62;2125442;83;27895;-63
2021/08/12 06:08:14;;;;;;;11.95;8.93;;;;;;;21.58;59.89;100920.12;2125297;83;28508;-64
2021/08/12 06:11:16;;;;;;;21.50;9.35;;;;;;;21.78;59.23;100923.34;2125450;83;31079;-64
2021/08/12 06:14:19;;;;;;;12.18;8.70;;;;;;;22.03;58.79;100920.33;2124994;83;33545;-63
2021/08/12 06:17:23;;;;;;;13.65;8.83;;;;;;;22.35;58.56;100915.22;2114911;83;30208;-62
2021/08/12 06:20:26;;;;;;;18.27;8.93;;;;;;;22.76;57.97;100916.95;2125679;83;27705;-61
2021/08/12 06:23:31;;;;;;;11.60;7.45;;;;;;;23.21;57.44;100913.38;2125336;82;29674;-63
2021/08/12 06:26:33;;;;;;;9.90;8.53;;;;;;;23.63;56.50;100915.77;2124972;83;32284;-63
2021/08/12 06:29:36;;;;;;;11.28;7.53;;;;;;;24.14;55.94;100915.52;2125418;82;34118;-63
2021/08/12 06:32:38;;;;;;;10.72;7.67;;;;;;;24.65;54.98;100917.87;2125141;83;29345;-63
2021/08/12 06:35:40;;;;;;;12.68;6.90;;;;;;;25.20;54.22;100914.19;2125125;83;27686;-63
2021/08/12 06:38:42;;;;;;;13.43;7.70;;;;;;;25.83;53.54;100915.05;2124867;83;29632;-64
2021/08/12 06:41:44;;;;;;;7.40;6.05;;;;;;;26.34;52.40;100913.83;2124664;83;31470;-62
2021/08/12 06:44:46;;;;;;;8.48;6.45;;;;;;;26.87;51.63;100919.70;2125302;82;33731;-62
2021/08/12 06:47:49;;;;;;;9.43;6.20;;;;;;;27.26;50.54;100919.08;2123753;83;31426;-62
2021/08/12 06:50:51;;;;;;;10.20;6.20;;;;;;;27.72;49.81;100918.55;2125423;83;27703;-63
2021/08/12 06:53:52;;;;;;;10.00;6.10;;;;;;;28.07;48.68;100918.33;2125263;83;29866;-65
2021/08/12 06:56:54;;;;;;;8.33;5.33;;;;;;;28.44;48.53;100915.48;2124941;83;32264;-65
2021/08/12 06:59:56;;;;;;;10.38;6.55;;;;;;;28.82;47.44;100925.82;2124893;83;33030;-66
2021/08/12 07:02:59;;;;;;;8.50;5.20;;;;;;;29.17;46.47;100924.91;2125347;82;29366;-64
2021/08/12 07:06:01;;;;;;;9.20;5.37;;;;;;;29.50;46.28;100924.67;2125353;83;27713;-64
2021/08/12 07:09:03;;;;;;;8.35;5.10;;;;;;;29.90;45.91;100919.78;2125066;82;28712;-64
2021/08/12 07:12:06;;;;;;;6.60;5.87;;;;;;;30.32;44.62;100925.73;2125322;83;31392;-64
2021/08/12 07:15:09;;;;;;;10.58;5.47;;;;;;;30.62;43.73;100921.57;2125334;83;32399;-65
2021/08/12 07:18:11;;;;;;;10.68;5.35;;;;;;;30.91;43.37;100922.02;2125018;83;30270;-63
2021/08/12 07:21:16;;;;;;;9.33;5.70;;;;;;;31.29;43.00;100922.33;2124951;83;27823;-64
2021/08/12 07:24:19;;;;;;;6.92;4.97;;;;;;;31.52;42.09;100921.27;2126042;83;28681;-63
2021/08/12 07:27:21;;;;;;;6.10;4.90;;;;;;;31.85;41.21;100918.48;2124824;83;33194;-63
2021/08/12 07:30:23;;;;;;;7.12;5.35;;;;;;;32.17;40.26;100921.12;2124802;83;33893;-64
2021/08/12 07:33:25;;;;;;;6.87;4.87;;;;;;;32.42;39.70;100929.81;2125325;83;29312;-64
2021/08/12 07:36:26;;;;;;;7.87;4.22;;;;;;;32.65;39.52;100928.64;2125475;83;27704;-64
2021/08/12 07:39:29;;;;;;;7.20;4.35;;;;;;;32.94;38.79;100930.78;2124852;83;29751;-65
2021/08/12 07:42:31;;;;;;;6.33;4.28;;;;;;;33.12;38.04;100927.94;2124599;83;31964;-62
2021/08/12 07:45:33;;;;;;;5.33;3.90;;;;;;;33.26;37.39;100934.38;2124544;83;34202;-65
2021/08/12 07:48:36;;;;;;;7.42;3.95;;;;;;;33.46;37.32;100936.66;2124554;83;30552;-65
2021/08/12 07:51:38;;;;;;;6.58;4.03;;;;;;;33.78;36.78;100936.02;2125384;82;27618;-64
2021/08/12 07:54:42;;;;;;;6.50;3.95;;;;;;;33.99;36.08;100937.73;2124738;83;29904;-63
2021/08/12 07:57:44;;;;;;;5.85;4.08;;;;;;;34.23;35.92;100933.39;2125011;83;32256;-63
2021/08/12 08:00:46;;;;;;;6.40;3.22;;;;;;;34.42;35.15;100931.35;2125233;82;34330;-64
2021/08/12 08:03:49;;;;;;;5.62;3.70;;;;;;;34.49;34.14;100932.16;2125064;82;30008;-64
2021/08/12 08:06:51;;;;;;;8.33;4.70;;;;;;;34.45;33.29;100928.97;2119988;82;27645;-64
2021/08/12 08:09:53;;;;;;;9.85;4.17;;;;;;;34.59;33.37;100930.30;2110655;84;29920;-64
2021/08/12 08:12:55;;;;;;;9.30;4.05;;;;;;;34.71;32.70;100936.04;2120644;82;32353;-64
2021/08/12 08:15:58;;;;;;;4.00;3.52;;;;;;;34.74;32.04;100932.27;2124896;82;33859;-63
2021/08/12 08:19:00;;;;;;;4.83;3.98;;;;;;;34.69;32.60;100934.33;2137776;82;30467;-64
2021/08/12 08:22:02;;;;;;;9.05;3.83;;;;;;;34.71;32.27;100936.88;2161726;82;27685;-63
2021/08/12 08:25:06;;;;;;;8.83;3.90;;;;;;;34.74;31.43;100931.42;2161651;82;29531;-62
2021/08/12 08:28:08;;;;;;;4.67;3.65;;;;;;;34.63;30.92;100936.59;2161932;82;31058;-64
2021/08/12 08:31:13;;;;;;;5.12;3.42;;;;;;;34.77;31.64;100942.09;2152096;82;33132;-64
2021/08/12 08:34:15;;;;;;;5.65;3.55;;;;;;;34.83;30.92;100934.25;2158171;82;30640;-64
2021/08/12 08:37:18;;;;;;;4.00;3.65;;;;;;;34.80;30.68;100943.05;2162055;82;27695;-64
2021/08/12 08:40:21;;;;;;;5.37;3.20;;;;;;;34.76;30.28;100944.03;2162215;82;30047;-65
2021/08/12 08:43:28;;;;;;;5.77;2.97;;;;;;;34.71;29.55;100946.62;2125841;82;31105;-64
2021/08/12 08:46:27;;;;;;;4.70;3.22;;;;;;;34.51;29.72;100942.53;2124809;83;33367;-64
2021/08/12 08:49:30;;;;;;;4.97;3.92;;;;;;;34.31;29.12;100946.76;2125352;83;29688;-64
2021/08/12 08:52:32;;;;;;;3.10;2.80;;;;;;;34.04;29.28;100947.67;2125076;82;27752;-64
2021/08/12 08:55:34;;;;;;;4.47;3.10;;;;;;;33.86;29.04;100951.06;2125149;83;28736;-64
2021/08/12 08:58:36;;;;;;;4.62;3.00;;;;;;;33.73;29.33;100945.53;2124877;83;31860;-64
2021/08/12 09:01:40;;;;;;;3.15;2.77;;;;;;;33.54;29.17;100938.91;2124811;82;34220;-63
2021/08/12 09:04:42;;;;;;;6.35;3.42;;;;;;;33.20;29.56;100938.84;2125314;83;29346;-63
2021/08/12 09:07:45;;;;;;;4.78;3.25;;;;;;;33.02;29.45;100941.69;2124904;83;28223;-63
2021/08/12 09:10:49;;;;;;;4.12;3.40;;;;;;;32.63;29.31;100940.98;2129127;82;29566;-64
2021/08/12 09:13:52;;;;;;;6.60;3.35;;;;;;;32.15;29.93;100934.87;2161762;82;31126;-63
2021/08/12 09:16:54;;;;;;;6.30;3.65;;;;;;;32.03;30.17;100938.19;2161551;82;34199;-63
2021/08/12 09:20:17;;;;;;;4.37;3.70;;;;;;;31.89;30.57;100930.84;2153294;81;29851;-63
2021/08/12 09:23:25;;;;;;;6.33;3.30;;;;;;;31.92;31.20;100930.45;2130155;82;27641;-63
2021/08/12 09:26:28;;;;;;;3.27;2.90;;;;;;;31.98;31.23;100937.42;2122169;83;29917;-64
2021/08/12 09:29:33;;;;;;;9.03;3.42;;;;;;;31.73;30.12;100938.41;2122532;83;31579;-64
2021/08/12 09:32:49;;;;;;;4.80;3.40;;;;;;;31.52;30.43;100932.34;2122877;83;34168;-64
2021/08/12 09:35:52;;;;;;;7.37;3.12;;;;;;;31.35;30.52;100933.16;2122793;83;30475;-64
2021/08/12 09:39:15;;;;;;;3.70;2.90;;;;;;;31.17;31.11;100923.92;2122192;83;27697;-63
2021/08/12 09:42:19;;;;;;;5.08;3.02;;;;;;;31.16;30.77;100918.05;2122249;83;29547;-64
2021/08/12 09:45:26;;;;;;;3.92;2.72;;;;;;;30.95;30.72;100918.33;2122452;83;32234;-65
2021/08/12 09:48:27;;;;;;;4.10;2.98;;;;;;;30.74;31.01;100926.08;2122365;83;33880;-63
2021/08/12 09:51:33;;;;;;;3.85;2.95;;;;;;;30.50;30.80;100922.59;2122125;83;30490;-64
2021/08/12 09:54:35;;;;;;;3.83;2.92;;;;;;;30.36;31.44;100933.14;2126745;82;27807;-64
2021/08/12 09:57:47;;;;;;;6.28;2.90;;;;;;;30.16;31.81;100931.79;2153400;82;29876;-64
2021/08/12 10:00:51;;;;;;;7.00;3.33;;;;;;;30.10;32.46;100935.33;2095397;85;32394;-64
2021/08/12 10:03:54;;;;;;;4.67;2.83;;;;;;;30.03;32.35;100925.23;2106813;82;33755;-64
2021/08/12 10:06:56;;;;;;;5.45;3.08;;;;;;;29.95;32.57;100926.14;2131207;82;30242;-65
2021/08/12 10:09:57;;;;;;;3.30;3.00;;;;;;;29.79;32.26;100931.30;2124098;83;27688;-65
2021/08/12 10:13:03;;;;;;;3.12;2.72;;;;;;;29.66;32.30;100930.05;2132953;83;29941;-64
2021/08/12 10:16:05;;;;;;;3.37;2.60;;;;;;;29.40;31.81;100918.02;2122465;83;31095;-64
2021/08/12 10:19:11;;;;;;;4.30;2.87;;;;;;;29.16;32.11;100919.05;2145930;82;32955;-65
2021/08/12 10:22:13;;;;;;;3.83;2.50;;;;;;;29.04;32.42;100920.83;2125402;83;30169;-64
2021/08/12 10:25:17;;;;;;;4.78;2.70;;;;;;;28.89;32.68;100919.39;2125250;83;27749;-68
2021/08/12 10:28:20;;;;;;;4.92;2.98;;;;;;;28.76;32.84;100921.89;2125413;83;28761;-67
2021/08/12 10:31:24;;;;;;;5.65;2.72;;;;;;;28.57;32.82;100921.77;2125012;83;30445;-66
2021/08/12 10:34:26;;;;;;;3.95;2.95;;;;;;;28.32;32.44;100914.47;2125123;83;33239;-65
2021/08/12 10:37:28;;;;;;;3.70;2.60;;;;;;;28.11;32.94;100921.95;2142464;82;30112;-65
2021/08/12 10:40:35;;;;;;;4.15;2.60;;;;;;;28.02;33.19;100907.84;2125987;82;27764;-65
2021/08/12 10:43:37;;;;;;;5.37;3.00;;;;;;;27.95;33.44;100912.33;2124127;83;28650;-65
2021/08/12 10:46:41;;;;;;;3.95;2.70;;;;;;;27.88;33.63;100906.66;2135055;82;46517;-65
2021/08/12 10:49:43;;;;;;;3.30;2.60;;;;;;;27.89;33.93;100908.39;2124968;83;33016;-65
2021/08/12 10:53:10;;;;;;;4.43;2.60;;;;;;;27.82;33.57;100912.36;2125188;83;28202;-65
2021/08/12 10:56:16;;;;;;;4.55;3.10;;;;;;;27.74;33.42;100905.48;2128305;82;27725;-66
2021/08/12 10:59:24;;;;;;;3.55;2.77;;;;;;;27.68;33.71;100900.69;2159786;82;28720;-65
2021/08/12 11:02:36;;;;;;;3.52;2.95;;;;;;;27.77;33.63;100901.00;2158932;82;27764;-64
2021/08/12 11:06:11;;;;;;;4.15;2.80;;;;;;;27.70;33.57;100906.88;2161403;82;29395;-64
2021/08/12 11:09:16;;;;;;;3.87;2.62;;;;;;;27.53;33.29;100904.65;2160371;82;27750;-64
2021/08/12 11:12:20;;;;;;;4.75;2.80;;;;;;;27.40;33.54;100907.87;2141177;82;28104;-66
2021/08/12 11:15:42;;;;;;;4.00;2.90;;;;;;;27.29;33.78;100909.95;2161973;82;28652;-65
2021/08/12 11:18:55;;;;;;;5.50;2.85;;;;;;;27.17;34.11;100907.20;2122723;82;31848;-66
2021/08/12 11:21:59;;;;;;;3.10;2.62;;;;;;;27.11;34.36;100905.13;2141495;82;33191;-65
2021/08/12 11:25:02;;;;;;;3.35;2.87;;;;;;;27.04;34.39;100908.23;2153652;82;29520;-64
2021/08/12 11:28:04;;;;;;;3.13;2.73;;;;;;;26.96;34.58;100905.80;2141542;82;27661;-66
2021/08/12 11:31:23;;;;;;;3.30;2.58;;;;;;;26.88;34.23;100907.17;2116998;84;28693;-65
2021/08/12 11:34:33;;;;;;;4.12;3.72;;;;;;;26.81;34.33;100904.73;2114799;84;30536;-62
2021/08/12 11:37:36;;;;;;;6.65;2.72;;;;;;;26.74;34.33;100899.52;2117348;83;33106;-61
2021/08/12 11:40:38;;;;;;;5.20;2.92;;;;;;;26.66;34.17;100900.36;2129902;82;29710;-62
2021/08/12 11:43:42;;;;;;;5.37;2.70;;;;;;;26.67;35.24;100889.71;2128538;83;27693;-61
2021/08/12 11:46:45;;;;;;;2.80;2.43;;;;;;;26.84;36.00;100893.41;2129111;83;28647;-61
2021/08/12 11:49:53;;;;;;;4.35;2.98;;;;;;;26.97;35.65;100903.39;2115509;83;31982;-61
2021/08/12 11:52:55;;;;;;;3.98;2.70;;;;;;;27.04;35.10;100898.08;2116989;83;32403;-61
2021/08/12 11:56:01;;;;;;;6.37;2.35;;;;;;;27.07;34.76;100900.98;2116662;84;30519;-61
2021/08/12 11:59:04;;;;;;;2.45;2.25;;;;;;;27.12;34.75;100891.72;2116214;84;27640;-61
2021/08/12 12:02:07;;;;;;;4.07;3.13;;;;;;;27.19;34.82;100898.77;2125840;82;28982;-61
2021/08/12 12:05:12;;;;;;;3.30;2.22;;;;;;;27.24;34.34;100890.87;2128687;82;31539;-61
2021/08/12 12:08:14;;;;;;;3.35;2.77;;;;;;;27.28;34.64;100894.48;2118665;83;34182;-61
2021/08/12 12:11:17;;;;;;;4.35;2.70;;;;;;;27.34;34.62;100886.05;2107624;83;30155;-61
2021/08/12 12:14:28;;;;;;;3.50;2.50;;;;;;;27.41;34.80;100884.84;2108304;84;27715;-60
2021/08/12 12:17:33;;;;;;;3.05;2.75;;;;;;;27.48;34.51;100889.16;2116412;84;29536;-61
2021/08/12 12:20:37;;;;;;;3.00;2.35;;;;;;;27.59;35.06;100884.17;2123714;83;35694;-61
2021/08/12 12:23:46;;;;;;;2.80;2.50;;;;;;;27.71;34.85;100885.20;2124702;82;34208;-62
2021/08/12 12:26:49;;;;;;;3.08;2.72;;;;;;;27.81;34.92;100883.11;2124764;82;30501;-61
2021/08/12 12:29:51;;;;;;;2.90;2.60;;;;;;;27.88;34.21;100879.12;2110780;82;27731;-61
2021/08/12 12:33:09;;;;;;;4.22;2.75;;;;;;;27.97;33.83;100882.19;2125124;82;28729;-61
2021/08/12 12:36:11;;;;;;;3.12;2.72;;;;;;;28.00;34.22;100883.75;2124802;83;32245;-61
2021/08/12 12:39:13;;;;;;;3.35;2.85;;;;;;;28.09;33.35;100877.16;2124717;83;34174;-62
2021/08/12 12:42:17;;;;;;;5.22;2.95;;;;;;;28.05;33.90;100873.91;2082137;85;30145;-61
2021/08/12 12:45:20;;;;;;;6.90;2.85;;;;;;;28.01;34.08;100873.08;2046662;86;28243;-61
2021/08/12 12:48:42;;;;;;;4.30;2.72;;;;;;;27.94;33.74;100872.92;2088115;85;29892;-61
2021/08/12 12:51:44;;;;;;;4.12;3.30;;;;;;;27.82;34.14;100876.56;2125414;83;31429;-61
2021/08/12 12:54:48;;;;;;;3.08;2.47;;;;;;;27.79;34.06;100872.78;2124958;83;33780;-61
2021/08/12 12:57:50;;;;;;;3.92;2.50;;;;;;;27.74;34.17;100866.44;2082470;85;33980;-61
2021/08/12 13:01:05;;;;;;;3.08;2.52;;;;;;;27.77;33.93;100867.12;2046652;87;27691;-61
2021/08/12 13:04:07;;;;;;;2.92;2.72;;;;;;;27.75;33.75;100863.14;2079866;85;28660;-60
2021/08/12 13:07:22;;;;;;;3.37;2.60;;;;;;;27.70;33.52;100864.21;2082349;85;32262;-61
2021/08/12 13:10:24;;;;;;;3.62;2.65;;;;;;;27.66;33.76;100860.08;2117742;84;33420;-61
2021/08/12 13:13:26;;;;;;;5.30;2.80;;;;;;;27.60;33.45;100861.65;2105298;84;30233;-61
2021/08/12 13:16:47;;;;;;;3.42;2.60;;;;;;;27.57;33.48;100860.61;2058758;86;27692;-61
2021/08/12 13:19:54;;;;;;;4.70;2.47;;;;;;;27.49;33.23;100854.61;2001298;88;29465;-61
2021/08/12 13:22:56;;;;;;;4.05;2.45;;;;;;;27.44;33.70;100858.36;1990487;87;31127;-61
2021/08/12 13:25:58;;;;;;;4.58;2.90;;;;;;;27.39;33.25;100855.25;2006479;87;34203;-61
2021/08/12 13:29:11;;;;;;;4.90;2.58;;;;;;;27.34;32.97;100848.06;2027993;87;30461;-62
2021/08/12 13:32:15;;;;;;;4.45;2.62;;;;;;;27.25;33.32;100851.33;2028399;87;27682;-62
2021/08/12 13:35:17;;;;;;;4.05;2.55;;;;;;;27.16;32.98;100847.72;2027589;87;29481;-61
2021/08/12 13:38:20;;;;;;;4.33;2.87;;;;;;;27.04;33.37;100851.32;2018470;87;31498;-61
2021/08/12 13:41:22;;;;;;;3.85;3.22;;;;;;;26.91;33.50;100846.31;2028820;87;32482;-61
2021/08/12 13:44:26;;;;;;;6.58;2.92;;;;;;;26.84;33.34;100841.17;2028524;87;29107;-61
2021/08/12 13:47:28;;;;;;;3.27;2.70;;;;;;;26.77;33.16;100835.97;2007288;87;27731;-61
2021/08/12 13:50:31;;;;;;;3.70;2.60;;;;;;;26.66;33.27;100835.27;1995662;89;29506;-61
2021/08/12 13:53:33;;;;;;;2.95;2.65;;;;;;;26.63;33.51;100835.61;1995590;89;32244;-62
2021/08/12 13:56:35;;;;;;;5.08;4.55;;;;;;;26.59;33.93;100835.59;2003037;87;33793;-61
2021/08/12 13:59:37;;;;;;;3.95;2.85;;;;;;;26.54;33.99;100832.51;2027941;87;30326;-61
2021/08/12 14:02:39;;;;;;;8.08;3.55;;;;;;;26.54;34.40;100832.51;2028285;87;27796;-61
2021/08/12 14:05:42;;;;;;;4.80;2.65;;;;;;;26.55;34.96;100834.23;2028156;87;28302;-61
2021/08/12 14:08:44;;;;;;;3.72;2.50;;;;;;;26.51;34.86;100830.94;2025989;87;32249;-62
2021/08/12 14:11:46;;;;;;;3.92;2.77;;;;;;;26.53;34.91;100828.03;2027930;87;34160;-61
2021/08/12 14:14:49;;;;;;;2.80;2.50;;;;;;;26.51;34.84;100830.94;2038043;86;30235;-61